createdAt,value
2022-12-31T00:00:08.798Z,96318.78
2022-12-31T00:02:36.253Z,96327.75
2022-12-31T00:05:04.553Z,96340.66
2022-12-31T00:09:57.596Z,96364.84
2022-12-31T00:12:24.850Z,96355.66
2022-12-31T00:14:51.460Z,96348.03
2022-12-31T00:17:18.032Z,96358.06
2022-12-31T00:19:44.638Z,96358.00
2022-12-31T00:22:11.205Z,96372.47
2022-12-31T00:24:37.853Z,96361.41
2022-12-31T00:27:04.500Z,96384.72
2022-12-31T00:29:31.091Z,96386.50
2022-12-31T00:31:57.702Z,96396.34
2022-12-31T00:34:24.369Z,96400.13
2022-12-31T00:36:51.011Z,96406.84
2022-12-31T00:39:17.606Z,96409.00
2022-12-31T00:41:44.308Z,96405.69
2022-12-31T00:44:14.595Z,96403.91
2022-12-31T00:49:07.082Z,96381.56
2022-12-31T00:51:33.825Z,96379.63
2022-12-31T00:54:00.551Z,96379.66
2022-12-31T00:56:29.277Z,96389.13
2022-12-31T00:58:56.568Z,96390.88
2022-12-31T01:01:26.713Z,96388.06
2022-12-31T01:03:56.325Z,96376.88
2022-12-31T01:06:22.991Z,96371.19
2022-12-31T01:08:50.759Z,96376.38
2022-12-31T01:11:24.017Z,96380.16
2022-12-31T01:13:50.485Z,96372.38
2022-12-31T01:16:18.665Z,96365.97
2022-12-31T01:18:45.374Z,96373.63
2022-12-31T01:21:13.236Z,96371.84
2022-12-31T01:23:40.668Z,96365.66
2022-12-31T01:26:09.478Z,96364.44
2022-12-31T01:28:36.401Z,96356.31
2022-12-31T01:31:08.180Z,96368.44
2022-12-31T01:33:35.768Z,96359.13
2022-12-31T01:36:05.183Z,96350.16
2022-12-31T01:38:32.035Z,96362.06
2022-12-31T01:40:58.675Z,96347.56
2022-12-31T01:43:56.199Z,96346.69
2022-12-31T01:46:51.381Z,96344.28
2022-12-31T01:49:23.947Z,96337.31
2022-12-31T01:52:09.136Z,96344.06
2022-12-31T01:54:40.034Z,96348.63
2022-12-31T01:57:08.196Z,96348.69
2022-12-31T01:59:34.856Z,96337.41
2022-12-31T02:02:01.905Z,96330.72
2022-12-31T02:04:29.333Z,96327.84
2022-12-31T02:07:07.929Z,96322.88
2022-12-31T02:09:38.270Z,96333.66
2022-12-31T02:12:06.091Z,96325.91
2022-12-31T02:14:37.308Z,96333.59
2022-12-31T02:17:09.754Z,96339.50
2022-12-31T02:19:41.985Z,96343.69
2022-12-31T02:22:39.571Z,96357.31
2022-12-31T02:25:25.191Z,96362.34
2022-12-31T02:28:12.004Z,96376.00
2022-12-31T02:30:40.467Z,96384.41
2022-12-31T02:33:32.372Z,96377.69
2022-12-31T02:36:03.235Z,96378.63
2022-12-31T02:38:38.365Z,96385.91
2022-12-31T02:41:05.108Z,96379.44
2022-12-31T02:43:31.825Z,96380.66
2022-12-31T02:46:10.986Z,96388.38
2022-12-31T02:48:37.789Z,96397.03
2022-12-31T02:51:20.656Z,96407.16
2022-12-31T02:54:05.277Z,96425.13
2022-12-31T02:56:45.492Z,96435.63
2022-12-31T02:59:41.790Z,96428.72
2022-12-31T03:02:14.866Z,96406.69
2022-12-31T03:04:49.806Z,96418.97
2022-12-31T03:07:22.712Z,96433.44
2022-12-31T03:09:49.962Z,96424.19
2022-12-31T03:12:37.503Z,96429.84
2022-12-31T03:15:06.802Z,96418.25
2022-12-31T03:17:34.193Z,96430.91
2022-12-31T03:20:19.536Z,96427.78
2022-12-31T03:22:46.157Z,96428.16
2022-12-31T03:25:35.294Z,96431.75
2022-12-31T03:28:04.445Z,96424.69
2022-12-31T03:30:32.067Z,96420.53
2022-12-31T03:32:59.294Z,96427.88
2022-12-31T03:35:27.579Z,96426.47
2022-12-31T03:37:54.687Z,96410.53
2022-12-31T03:40:23.473Z,96410.66
2022-12-31T03:42:50.196Z,96399.28
2022-12-31T03:45:16.851Z,96396.38
2022-12-31T03:47:43.692Z,96401.88
2022-12-31T03:50:12.397Z,96400.81
2022-12-31T03:52:39.368Z,96399.78
2022-12-31T03:55:06.982Z,96397.69
2022-12-31T03:57:33.931Z,96407.34
2022-12-31T04:00:00.577Z,96392.16
2022-12-31T04:02:29.186Z,96406.16
2022-12-31T04:04:56.219Z,96414.16
2022-12-31T04:07:23.096Z,96405.03
2022-12-31T04:09:49.984Z,96409.28
2022-12-31T04:12:16.657Z,96401.81
2022-12-31T04:14:43.403Z,96410.50
2022-12-31T04:17:10.150Z,96409.44
2022-12-31T04:19:37.699Z,96415.63
2022-12-31T04:22:04.790Z,96418.53
2022-12-31T04:24:31.495Z,96427.53
2022-12-31T04:27:03.575Z,96428.91
2022-12-31T04:29:32.083Z,96430.22
2022-12-31T04:31:58.731Z,96430.63
2022-12-31T04:34:25.379Z,96430.63
2022-12-31T04:36:51.984Z,96422.72
2022-12-31T04:39:18.589Z,96433.91
2022-12-31T04:41:45.187Z,96428.56
2022-12-31T04:44:12.684Z,96432.00
2022-12-31T04:46:39.443Z,96434.28
2022-12-31T04:49:06.116Z,96433.91
2022-12-31T04:51:32.899Z,96440.78
2022-12-31T04:54:00.110Z,96444.25
2022-12-31T04:56:28.271Z,96446.97
2022-12-31T04:58:55.155Z,96446.47
2022-12-31T05:01:22.744Z,96456.41
2022-12-31T05:03:49.744Z,96455.19
2022-12-31T05:06:22.742Z,96470.00
2022-12-31T05:08:50.217Z,96465.50
2022-12-31T05:11:17.754Z,96468.78
2022-12-31T05:13:44.928Z,96467.59
2022-12-31T05:16:11.698Z,96465.50
2022-12-31T05:18:38.641Z,96475.16
2022-12-31T05:21:06.421Z,96477.00
2022-12-31T05:23:33.056Z,96469.81
2022-12-31T05:25:59.751Z,96482.59
2022-12-31T05:28:26.718Z,96481.38
2022-12-31T05:30:53.539Z,96477.59
2022-12-31T05:33:20.712Z,96483.06
2022-12-31T05:35:47.485Z,96481.22
2022-12-31T05:38:14.114Z,96475.72
2022-12-31T05:40:40.709Z,96477.19
2022-12-31T05:43:07.725Z,96477.09
2022-12-31T05:45:34.392Z,96479.78
2022-12-31T05:48:01.180Z,96489.59
2022-12-31T05:50:27.860Z,96486.97
2022-12-31T05:52:54.501Z,96491.97
2022-12-31T05:55:21.204Z,96490.56
2022-12-31T05:57:47.812Z,96498.25
2022-12-31T06:00:15.025Z,96511.13
2022-12-31T06:02:41.693Z,96506.72
2022-12-31T06:05:08.805Z,96500.13
2022-12-31T06:07:35.410Z,96504.16
2022-12-31T06:10:02.036Z,96502.84
2022-12-31T06:12:28.624Z,96497.38
2022-12-31T06:14:55.230Z,96497.97
2022-12-31T06:17:22.579Z,96497.97
2022-12-31T06:19:49.197Z,96514.94
2022-12-31T06:22:16.208Z,96510.03
2022-12-31T06:24:42.804Z,96515.34
2022-12-31T06:27:09.576Z,96520.81
2022-12-31T06:29:36.329Z,96523.72
2022-12-31T06:32:03.023Z,96523.50
2022-12-31T06:34:29.685Z,96525.41
2022-12-31T06:36:56.369Z,96526.50
2022-12-31T06:39:23.047Z,96536.38
2022-12-31T06:41:49.648Z,96533.84
2022-12-31T06:44:16.362Z,96543.84
2022-12-31T06:46:42.994Z,96548.63
2022-12-31T06:49:09.716Z,96540.94
2022-12-31T06:51:36.352Z,96541.63
2022-12-31T06:54:02.956Z,96553.59
2022-12-31T06:56:34.304Z,96544.88
2022-12-31T06:59:02.981Z,96547.53
2022-12-31T07:01:41.793Z,96545.63
2022-12-31T07:04:45.667Z,96543.34
2022-12-31T07:07:22.125Z,96537.66
2022-12-31T07:09:58.851Z,96546.06
2022-12-31T07:13:10.237Z,96543.66
2022-12-31T07:15:59.211Z,96559.84
2022-12-31T07:18:40.775Z,96546.06
2022-12-31T07:21:16.396Z,96550.16
2022-12-31T07:23:43.785Z,96545.16
2022-12-31T07:26:34.891Z,96530.50
2022-12-31T07:29:13.506Z,96547.03
2022-12-31T07:32:13.654Z,96542.25
2022-12-31T07:34:58.975Z,96538.63
2022-12-31T07:37:41.738Z,96531.84
2022-12-31T07:41:01.606Z,96534.81
2022-12-31T07:43:42.841Z,96540.22
2022-12-31T07:46:22.307Z,96533.47
2022-12-31T07:48:49.246Z,96543.47
2022-12-31T07:51:16.399Z,96550.66
2022-12-31T07:53:42.995Z,96544.38
2022-12-31T07:56:10.393Z,96546.19
2022-12-31T07:58:39.969Z,96551.56
2022-12-31T08:01:15.992Z,96552.38
2022-12-31T08:04:22.020Z,96556.00
2022-12-31T08:07:19.057Z,96565.59
2022-12-31T08:10:12.568Z,96567.78
2022-12-31T08:12:43.253Z,96567.78
2022-12-31T08:15:15.851Z,96565.22
2022-12-31T08:17:43.340Z,96571.81
2022-12-31T08:20:17.440Z,96571.94
2022-12-31T08:23:14.171Z,96572.59
2022-12-31T08:26:06.543Z,96574.19
2022-12-31T08:28:35.999Z,96568.63
2022-12-31T08:31:09.241Z,96575.81
2022-12-31T08:33:42.595Z,96584.81
2022-12-31T08:36:12.048Z,96590.09
2022-12-31T08:39:08.131Z,96593.97
2022-12-31T08:41:47.215Z,96603.75
2022-12-31T08:44:16.419Z,96621.56
2022-12-31T08:47:07.929Z,96614.53
2022-12-31T08:49:35.571Z,96624.13
2022-12-31T08:52:03.300Z,96612.94
2022-12-31T08:54:30.156Z,96611.53
2022-12-31T08:57:37.475Z,96611.75
2022-12-31T09:00:11.854Z,96620.66
2022-12-31T09:02:48.063Z,96615.44
2022-12-31T09:05:25.237Z,96616.84
2022-12-31T09:08:09.190Z,96611.94
2022-12-31T09:10:56.329Z,96606.34
2022-12-31T09:13:57.423Z,96607.16
2022-12-31T09:16:32.327Z,96607.22
2022-12-31T09:18:58.976Z,96614.88
2022-12-31T09:21:25.701Z,96610.59
2022-12-31T09:23:52.538Z,96615.28
2022-12-31T09:26:47.015Z,96622.03
2022-12-31T09:29:43.546Z,96624.97
2022-12-31T09:32:48.053Z,96616.78
2022-12-31T09:35:30.027Z,96611.88
2022-12-31T09:38:07.924Z,96622.19
2022-12-31T09:40:46.918Z,96615.47
2022-12-31T09:43:41.400Z,96612.28
2022-12-31T09:46:34.897Z,96608.63
2022-12-31T09:49:10.179Z,96597.13
2022-12-31T09:52:04.001Z,96590.72
2022-12-31T09:54:43.897Z,96602.50
2022-12-31T09:57:33.532Z,96592.84
2022-12-31T10:00:18.680Z,96603.41
2022-12-31T10:02:56.578Z,96588.81
2022-12-31T10:05:59.625Z,96588.22
2022-12-31T10:08:29.264Z,96586.53
2022-12-31T10:11:05.185Z,96588.47
2022-12-31T10:13:56.321Z,96590.09
2022-12-31T10:16:49.504Z,96581.56
2022-12-31T10:19:28.175Z,96575.50
2022-12-31T10:22:06.955Z,96573.91
2022-12-31T10:24:39.597Z,96570.41
2022-12-31T10:27:16.535Z,96572.81
2022-12-31T10:30:02.131Z,96570.72
2022-12-31T10:33:00.644Z,96564.66
2022-12-31T10:35:54.112Z,96557.16
2022-12-31T10:38:20.660Z,96556.78
2022-12-31T10:41:06.000Z,96545.63
2022-12-31T10:43:57.193Z,96542.22
2022-12-31T10:46:48.425Z,96535.41
2022-12-31T10:49:50.180Z,96540.78
2022-12-31T10:52:28.473Z,96536.13
2022-12-31T10:55:26.012Z,96520.78
2022-12-31T10:58:15.585Z,96524.22
2022-12-31T11:01:00.887Z,96519.44
2022-12-31T11:04:03.400Z,96505.19
2022-12-31T11:07:02.913Z,96507.69
2022-12-31T11:09:53.516Z,96506.88
2022-12-31T11:12:32.244Z,96514.34
2022-12-31T11:15:13.907Z,96512.13
2022-12-31T11:18:04.403Z,96500.63
2022-12-31T11:20:55.990Z,96502.69
2022-12-31T11:23:41.000Z,96494.19
2022-12-31T11:26:27.470Z,96500.59
2022-12-31T11:28:59.249Z,96500.81
2022-12-31T11:31:37.963Z,96495.94
2022-12-31T11:34:13.196Z,96498.25
2022-12-31T11:37:01.612Z,96504.94
2022-12-31T11:39:59.815Z,96498.47
2022-12-31T11:42:26.349Z,96494.97
2022-12-31T11:44:59.746Z,96492.09
2022-12-31T11:47:32.414Z,96492.59
2022-12-31T11:50:25.976Z,96489.63
2022-12-31T11:53:23.960Z,96489.38
2022-12-31T11:55:53.619Z,96476.75
2022-12-31T11:58:22.427Z,96482.03
2022-12-31T12:01:00.408Z,96478.25
2022-12-31T12:03:27.828Z,96477.63
2022-12-31T12:05:57.145Z,96482.00
2022-12-31T12:08:25.405Z,96475.78
2022-12-31T12:11:00.381Z,96475.56
2022-12-31T12:13:27.916Z,96468.19
2022-12-31T12:15:58.224Z,96463.53
2022-12-31T12:18:40.868Z,96454.25
2022-12-31T12:21:20.977Z,96446.91
2022-12-31T12:23:57.740Z,96448.31
2022-12-31T12:26:32.968Z,96452.84
2022-12-31T12:29:08.572Z,96457.63
2022-12-31T12:31:36.256Z,96454.50
2022-12-31T12:34:04.075Z,96449.13
2022-12-31T12:36:31.597Z,96444.06
2022-12-31T12:39:06.408Z,96436.72
2022-12-31T12:41:33.348Z,96434.44
2022-12-31T12:44:09.103Z,96426.44
2022-12-31T12:46:47.836Z,96426.72
2022-12-31T12:49:40.771Z,96444.63
2022-12-31T12:52:36.588Z,96445.47
2022-12-31T12:55:11.864Z,96442.59
2022-12-31T12:58:00.168Z,96454.28
2022-12-31T13:00:54.358Z,96453.19
2022-12-31T13:06:49.533Z,96449.06
2022-12-31T13:09:25.010Z,96435.69
2022-12-31T13:11:58.978Z,96438.31
2022-12-31T13:14:46.400Z,96437.09
2022-12-31T13:17:22.112Z,96439.16
2022-12-31T13:19:48.671Z,96438.09
2022-12-31T13:22:42.610Z,96428.13
2022-12-31T13:25:34.588Z,96428.97
2022-12-31T13:28:05.394Z,96436.06
2022-12-31T13:30:54.507Z,96428.13
2022-12-31T13:33:27.905Z,96425.31
2022-12-31T13:35:58.920Z,96440.91
2022-12-31T13:38:40.673Z,96444.06
2022-12-31T13:41:28.894Z,96441.63
2022-12-31T13:44:01.440Z,96442.53
2022-12-31T13:46:43.073Z,96436.03
2022-12-31T13:49:31.614Z,96448.56
2022-12-31T13:51:58.199Z,96438.91
2022-12-31T13:54:36.071Z,96442.34
2022-12-31T13:57:23.590Z,96447.03
2022-12-31T13:59:57.978Z,96445.13
2022-12-31T14:02:48.019Z,96446.25
2022-12-31T14:05:23.336Z,96452.38
2022-12-31T14:07:57.144Z,96454.41
2022-12-31T14:10:52.881Z,96445.91
2022-12-31T14:13:34.649Z,96448.53
2022-12-31T14:16:01.595Z,96449.38
2022-12-31T14:18:46.023Z,96448.47
2022-12-31T14:21:40.687Z,96453.59
2022-12-31T14:24:21.540Z,96457.19
2022-12-31T14:26:52.672Z,96457.19
2022-12-31T14:29:28.504Z,96464.94
2022-12-31T14:32:08.236Z,96469.00
2022-12-31T14:34:50.012Z,96479.03
2022-12-31T14:37:54.017Z,96484.84
2022-12-31T14:40:49.327Z,96486.00
2022-12-31T14:44:00.829Z,96481.31
2022-12-31T14:46:56.292Z,96482.88
2022-12-31T14:49:56.709Z,96484.75
2022-12-31T14:52:35.224Z,96492.91
2022-12-31T14:55:51.393Z,96487.75
2022-12-31T14:58:29.524Z,96496.44
2022-12-31T15:01:04.487Z,96497.13
2022-12-31T15:03:31.120Z,96490.69
2022-12-31T15:06:00.350Z,96489.34
2022-12-31T15:08:51.845Z,96489.03
2022-12-31T15:11:23.860Z,96484.97
2022-12-31T15:14:16.776Z,96481.75
2022-12-31T15:16:43.382Z,96493.50
2022-12-31T15:19:18.926Z,96487.16
2022-12-31T15:22:00.457Z,96501.19
2022-12-31T15:24:30.851Z,96491.69
2022-12-31T15:27:00.920Z,96493.94
2022-12-31T15:29:45.747Z,96497.47
2022-12-31T15:32:20.214Z,96507.06
2022-12-31T15:34:47.023Z,96526.13
2022-12-31T15:37:35.400Z,96524.03
2022-12-31T15:40:24.996Z,96523.03
2022-12-31T15:43:13.907Z,96514.13
2022-12-31T15:45:42.544Z,96512.97
2022-12-31T15:48:19.805Z,96501.66
2022-12-31T15:50:47.532Z,96527.72
2022-12-31T15:53:42.733Z,96525.28
2022-12-31T15:56:18.554Z,96514.25
2022-12-31T15:58:47.458Z,96513.06
2022-12-31T16:01:44.551Z,96517.38
2022-12-31T16:04:21.808Z,96516.56
2022-12-31T16:06:51.222Z,96521.94
2022-12-31T16:09:27.538Z,96528.66
2022-12-31T16:11:56.139Z,96523.28
2022-12-31T16:14:38.543Z,96521.53
2022-12-31T16:17:06.310Z,96521.03
2022-12-31T16:19:51.988Z,96520.72
2022-12-31T16:22:36.424Z,96512.91
2022-12-31T16:25:30.089Z,96522.94
2022-12-31T16:27:53.396Z,96523.91
2022-12-31T16:30:27.004Z,96532.66
2022-12-31T16:32:58.026Z,96526.28
2022-12-31T16:35:32.123Z,96529.94
2022-12-31T16:38:08.043Z,96534.41
2022-12-31T16:40:35.464Z,96534.56
2022-12-31T16:43:02.120Z,96533.13
2022-12-31T16:45:36.974Z,96529.78
2022-12-31T16:48:17.283Z,96538.22
2022-12-31T16:50:50.805Z,96540.41
2022-12-31T16:53:21.076Z,96541.06
2022-12-31T16:55:57.153Z,96539.31
2022-12-31T16:58:36.007Z,96543.13
2022-12-31T17:01:23.577Z,96545.53
2022-12-31T17:03:58.589Z,96539.94
2022-12-31T17:06:28.176Z,96540.84
2022-12-31T17:09:00.757Z,96550.22
2022-12-31T17:11:33.237Z,96546.69
2022-12-31T17:14:06.163Z,96539.06
2022-12-31T17:16:34.911Z,96563.25
2022-12-31T17:19:01.945Z,96559.19
2022-12-31T17:21:30.906Z,96560.88
2022-12-31T17:24:04.728Z,96566.06
2022-12-31T17:26:33.577Z,96573.09
2022-12-31T17:29:02.155Z,96573.25
2022-12-31T17:31:33.636Z,96567.31
2022-12-31T17:34:06.428Z,96573.94
2022-12-31T17:36:33.153Z,96570.16
2022-12-31T17:39:19.395Z,96568.66
2022-12-31T17:41:49.648Z,96569.75
2022-12-31T17:44:21.615Z,96574.69
2022-12-31T17:46:50.252Z,96575.66
2022-12-31T17:49:21.838Z,96568.81
2022-12-31T17:51:48.489Z,96573.53
2022-12-31T17:54:17.094Z,96568.81
2022-12-31T17:56:44.812Z,96575.06
2022-12-31T17:59:37.703Z,96565.69
2022-12-31T18:02:05.452Z,96571.34
2022-12-31T18:04:32.127Z,96566.41
2022-12-31T18:06:58.738Z,96576.97
2022-12-31T18:09:25.384Z,96569.13
2022-12-31T18:11:55.516Z,96568.78
2022-12-31T18:14:23.528Z,96563.72
2022-12-31T18:16:50.132Z,96567.06
2022-12-31T18:19:45.916Z,96566.97
2022-12-31T18:22:03.473Z,96572.88
2022-12-31T18:24:30.063Z,96576.91
2022-12-31T18:26:56.718Z,96575.19
2022-12-31T18:29:23.406Z,96570.41
2022-12-31T18:31:50.811Z,96569.59
2022-12-31T18:34:18.523Z,96575.78
2022-12-31T18:36:45.607Z,96573.59
2022-12-31T18:39:12.269Z,96574.09
2022-12-31T18:41:49.662Z,96561.41
2022-12-31T18:44:16.908Z,96582.00
2022-12-31T18:46:43.516Z,96578.91
2022-12-31T18:49:10.140Z,96580.63
2022-12-31T18:51:36.750Z,96582.16
2022-12-31T18:54:04.751Z,96572.16
2022-12-31T18:56:31.500Z,96574.28
2022-12-31T18:58:59.760Z,96578.31
2022-12-31T19:01:29.257Z,96576.63
2022-12-31T19:03:58.540Z,96568.91
2022-12-31T19:06:25.956Z,96563.56
2022-12-31T19:08:53.108Z,96565.16
2022-12-31T19:11:20.942Z,96560.63
2022-12-31T19:13:48.277Z,96552.09
2022-12-31T19:16:15.309Z,96557.47
2022-12-31T19:18:42.409Z,96562.38
2022-12-31T19:21:20.735Z,96560.03
2022-12-31T19:23:47.357Z,96560.63
2022-12-31T19:26:15.579Z,96561.56
2022-12-31T19:28:42.940Z,96555.78
2022-12-31T19:31:09.626Z,96567.03
2022-12-31T19:33:36.592Z,96561.06
2022-12-31T19:36:04.627Z,96561.50
2022-12-31T19:38:32.595Z,96561.19
2022-12-31T19:40:59.588Z,96567.47
2022-12-31T19:43:26.229Z,96565.78
2022-12-31T19:45:53.106Z,96570.78
2022-12-31T19:48:27.184Z,96571.97
2022-12-31T19:50:58.841Z,96563.84
2022-12-31T19:53:27.566Z,96570.22
2022-12-31T19:55:54.462Z,96578.56
2022-12-31T19:58:25.412Z,96579.91
2022-12-31T20:01:02.025Z,96582.00
2022-12-31T20:03:31.205Z,96581.28
2022-12-31T20:06:07.292Z,96577.91
2022-12-31T20:08:35.457Z,96575.13
2022-12-31T20:11:12.773Z,96589.03
2022-12-31T20:13:40.990Z,96600.66
2022-12-31T20:16:10.037Z,96589.13
2022-12-31T20:18:38.158Z,96588.84
2022-12-31T20:21:09.146Z,96593.47
2022-12-31T20:23:35.734Z,96591.81
2022-12-31T20:26:02.679Z,96602.28
2022-12-31T20:28:29.930Z,96598.81
2022-12-31T20:30:56.953Z,96596.81
2022-12-31T20:33:23.983Z,96590.66
2022-12-31T20:35:50.741Z,96585.06
2022-12-31T20:38:17.360Z,96574.22
2022-12-31T20:40:46.926Z,96575.75
2022-12-31T20:43:14.199Z,96577.69
2022-12-31T20:45:41.778Z,96577.13
2022-12-31T20:48:08.600Z,96569.69
2022-12-31T20:50:35.421Z,96573.66
2022-12-31T20:53:02.529Z,96562.25
2022-12-31T20:55:30.975Z,96565.63
2022-12-31T20:57:57.614Z,96558.88
2022-12-31T21:00:24.291Z,96555.69
2022-12-31T21:03:00.411Z,96559.84
2022-12-31T21:05:31.252Z,96548.50
2022-12-31T21:07:58.482Z,96549.44
2022-12-31T21:10:25.156Z,96552.53
2022-12-31T21:12:54.535Z,96559.56
2022-12-31T21:15:21.805Z,96556.94
2022-12-31T21:17:48.599Z,96555.41
2022-12-31T21:20:15.295Z,96554.84
2022-12-31T21:22:41.962Z,96548.97
2022-12-31T21:25:10.588Z,96552.81
2022-12-31T21:27:37.339Z,96562.00
2022-12-31T21:30:20.752Z,96561.00
2022-12-31T21:32:48.152Z,96562.69
2022-12-31T21:38:02.444Z,96553.88
2022-12-31T21:40:30.316Z,96564.16
2022-12-31T21:42:57.133Z,96565.25
2022-12-31T21:45:24.653Z,96565.88
2022-12-31T21:48:10.033Z,96570.34
2022-12-31T21:50:36.738Z,96566.84
2022-12-31T21:53:03.902Z,96572.34
2022-12-31T21:55:48.944Z,96571.53
2022-12-31T21:58:32.036Z,96578.63
2022-12-31T22:01:18.443Z,96577.22
2022-12-31T22:03:45.560Z,96585.25
2022-12-31T22:06:16.171Z,96587.31
2022-12-31T22:08:44.851Z,96582.56
2022-12-31T22:11:13.164Z,96587.25
2022-12-31T22:13:40.363Z,96583.00
2022-12-31T22:16:07.977Z,96580.91
2022-12-31T22:18:38.940Z,96585.47
2022-12-31T22:21:23.059Z,96595.81
2022-12-31T22:23:52.493Z,96589.31
2022-12-31T22:26:21.971Z,96596.31
2022-12-31T22:28:49.317Z,96593.53
2022-12-31T22:31:18.668Z,96600.81
2022-12-31T22:33:45.962Z,96591.38
2022-12-31T22:36:18.190Z,96602.63
2022-12-31T22:38:44.965Z,96601.13
2022-12-31T22:41:17.774Z,96588.41
2022-12-31T22:43:47.657Z,96590.44
2022-12-31T22:46:20.021Z,96594.16
2022-12-31T22:48:47.205Z,96588.94
2022-12-31T22:51:14.965Z,96591.28
2022-12-31T22:53:43.484Z,96600.56
2022-12-31T22:56:12.509Z,96600.94
2022-12-31T22:58:39.163Z,96601.88
2022-12-31T23:01:16.950Z,96592.69
2022-12-31T23:03:43.831Z,96592.81
2022-12-31T23:06:10.747Z,96603.47
2022-12-31T23:08:37.387Z,96592.63
2022-12-31T23:11:09.512Z,96602.50
2022-12-31T23:13:59.861Z,96608.06
2022-12-31T23:16:48.046Z,96621.03
2022-12-31T23:19:34.113Z,96617.22
2022-12-31T23:22:19.836Z,96630.13
2022-12-31T23:24:46.477Z,96637.41
2022-12-31T23:27:13.351Z,96648.41
2022-12-31T23:29:46.628Z,96650.19
2022-12-31T23:32:15.843Z,96649.06
2022-12-31T23:34:43.183Z,96655.91
2022-12-31T23:37:10.093Z,96653.81
2022-12-31T23:39:36.748Z,96648.63
2022-12-31T23:42:03.540Z,96651.56
2022-12-31T23:44:30.140Z,96654.75
2022-12-31T23:46:56.920Z,96655.63
2022-12-31T23:49:23.806Z,96650.81
2022-12-31T23:51:50.441Z,96658.56
2022-12-31T23:54:17.905Z,96657.47
2022-12-31T23:56:44.765Z,96657.91
2022-12-31T23:59:12.768Z,96661.75
